sensor_id;sensor_type;location;lat;lon;timestamp;P1;durP1;ratioP1;P2;durP2;ratioP2
33495;SDS011;19836;55.812;37.560;2024-01-27T00:01:36;14.00;;;9.35;;
33495;SDS011;19836;55.812;37.560;2024-01-27T00:04:03;14.77;;;9.95;;
33495;SDS011;19836;55.812;37.560;2024-01-27T00:06:30;15.68;;;10.85;;
33495;SDS011;19836;55.812;37.560;2024-01-27T00:08:56;15.20;;;10.05;;
33495;SDS011;19836;55.812;37.560;2024-01-27T00:11:22;16.88;;;9.68;;
33495;SDS011;19836;55.812;37.560;2024-01-27T00:13:52;15.63;;;9.67;;
33495;SDS011;19836;55.812;37.560;2024-01-27T00:16:23;13.02;;;8.38;;
33495;SDS011;19836;55.812;37.560;2024-01-27T00:18:49;19.60;;;12.30;;
33495;SDS011;19836;55.812;37.560;2024-01-27T00:21:15;14.63;;;9.82;;
33495;SDS011;19836;55.812;37.560;2024-01-27T00:23:41;17.00;;;10.98;;
33495;SDS011;19836;55.812;37.560;2024-01-27T00:26:07;16.27;;;10.82;;
33495;SDS011;19836;55.812;37.560;2024-01-27T00:28:37;19.15;;;11.20;;
33495;SDS011;19836;55.812;37.560;2024-01-27T00:31:06;15.88;;;10.80;;
33495;SDS011;19836;55.812;37.560;2024-01-27T00:37:30;15.70;;;10.45;;
33495;SDS011;19836;55.812;37.560;2024-01-27T00:44:42;15.73;;;10.45;;
33495;SDS011;19836;55.812;37.560;2024-01-27T00:50:19;15.93;;;10.63;;
33495;SDS011;19836;55.812;37.560;2024-01-27T00:52:51;16.52;;;11.07;;
33495;SDS011;19836;55.812;37.560;2024-01-27T00:56:10;15.18;;;10.07;;
33495;SDS011;19836;55.812;37.560;2024-01-27T00:58:38;15.98;;;9.85;;
33495;SDS011;19836;55.812;37.560;2024-01-27T01:01:05;13.85;;;10.27;;
33495;SDS011;19836;55.812;37.560;2024-01-27T01:03:31;17.92;;;10.75;;
33495;SDS011;19836;55.812;37.560;2024-01-27T01:05:58;18.08;;;10.70;;
33495;SDS011;19836;55.812;37.560;2024-01-27T01:08:25;12.82;;;8.73;;
33495;SDS011;19836;55.812;37.560;2024-01-27T01:10:54;15.40;;;9.75;;
33495;SDS011;19836;55.812;37.560;2024-01-27T01:13:26;13.88;;;9.57;;
33495;SDS011;19836;55.812;37.560;2024-01-27T01:15:52;13.82;;;9.60;;
33495;SDS011;19836;55.812;37.560;2024-01-27T01:18:18;14.77;;;10.55;;
33495;SDS011;19836;55.812;37.560;2024-01-27T01:20:44;13.90;;;9.57;;
33495;SDS011;19836;55.812;37.560;2024-01-27T01:23:10;14.50;;;9.45;;
33495;SDS011;19836;55.812;37.560;2024-01-27T01:25:36;14.75;;;10.30;;
33495;SDS011;19836;55.812;37.560;2024-01-27T01:28:03;14.50;;;10.40;;
33495;SDS011;19836;55.812;37.560;2024-01-27T01:30:29;14.98;;;9.48;;
33495;SDS011;19836;55.812;37.560;2024-01-27T01:32:55;13.20;;;9.18;;
33495;SDS011;19836;55.812;37.560;2024-01-27T01:35:21;15.05;;;9.95;;
33495;SDS011;19836;55.812;37.560;2024-01-27T01:37:47;13.38;;;9.75;;
33495;SDS011;19836;55.812;37.560;2024-01-27T01:40:14;14.15;;;10.73;;
33495;SDS011;19836;55.812;37.560;2024-01-27T01:42:41;13.45;;;10.05;;
33495;SDS011;19836;55.812;37.560;2024-01-27T01:45:09;15.18;;;9.75;;
33495;SDS011;19836;55.812;37.560;2024-01-27T01:47:41;12.90;;;9.40;;
33495;SDS011;19836;55.812;37.560;2024-01-27T01:50:08;15.40;;;10.27;;
33495;SDS011;19836;55.812;37.560;2024-01-27T01:52:34;15.27;;;10.45;;
33495;SDS011;19836;55.812;37.560;2024-01-27T01:55:02;19.30;;;14.23;;
33495;SDS011;19836;55.812;37.560;2024-01-27T01:57:29;19.45;;;12.70;;
33495;SDS011;19836;55.812;37.560;2024-01-27T01:59:55;19.35;;;14.15;;
33495;SDS011;19836;55.812;37.560;2024-01-27T02:02:22;18.75;;;12.90;;
33495;SDS011;19836;55.812;37.560;2024-01-27T02:04:48;19.05;;;13.55;;
33495;SDS011;19836;55.812;37.560;2024-01-27T02:07:15;20.08;;;13.70;;
33495;SDS011;19836;55.812;37.560;2024-01-27T02:09:41;17.02;;;12.98;;
33495;SDS011;19836;55.812;37.560;2024-01-27T02:12:07;19.95;;;12.95;;
33495;SDS011;19836;55.812;37.560;2024-01-27T02:14:33;18.73;;;13.00;;
33495;SDS011;19836;55.812;37.560;2024-01-27T02:17:00;19.92;;;13.75;;
33495;SDS011;19836;55.812;37.560;2024-01-27T02:19:26;17.65;;;12.25;;
33495;SDS011;19836;55.812;37.560;2024-01-27T02:21:52;19.17;;;13.55;;
33495;SDS011;19836;55.812;37.560;2024-01-27T02:24:18;18.58;;;13.30;;
33495;SDS011;19836;55.812;37.560;2024-01-27T02:26:44;18.27;;;13.23;;
33495;SDS011;19836;55.812;37.560;2024-01-27T02:29:11;18.75;;;12.10;;
33495;SDS011;19836;55.812;37.560;2024-01-27T02:31:37;17.88;;;12.30;;
33495;SDS011;19836;55.812;37.560;2024-01-27T02:34:03;17.65;;;12.07;;
33495;SDS011;19836;55.812;37.560;2024-01-27T02:36:29;14.52;;;9.60;;
33495;SDS011;19836;55.812;37.560;2024-01-27T02:38:55;12.48;;;10.18;;
33495;SDS011;19836;55.812;37.560;2024-01-27T02:41:21;16.15;;;11.60;;
33495;SDS011;19836;55.812;37.560;2024-01-27T02:43:47;16.55;;;11.00;;
33495;SDS011;19836;55.812;37.560;2024-01-27T02:46:13;15.20;;;10.80;;
33495;SDS011;19836;55.812;37.560;2024-01-27T02:48:41;16.10;;;11.02;;
33495;SDS011;19836;55.812;37.560;2024-01-27T02:51:10;16.02;;;10.80;;
33495;SDS011;19836;55.812;37.560;2024-01-27T02:53:36;17.20;;;11.15;;
33495;SDS011;19836;55.812;37.560;2024-01-27T02:56:02;16.15;;;11.43;;
33495;SDS011;19836;55.812;37.560;2024-01-27T02:58:31;16.77;;;11.07;;
33495;SDS011;19836;55.812;37.560;2024-01-27T03:00:57;14.90;;;9.95;;
33495;SDS011;19836;55.812;37.560;2024-01-27T03:03:23;12.32;;;9.50;;
33495;SDS011;19836;55.812;37.560;2024-01-27T03:05:49;13.50;;;8.48;;
33495;SDS011;19836;55.812;37.560;2024-01-27T03:08:15;15.60;;;11.00;;
33495;SDS011;19836;55.812;37.560;2024-01-27T03:10:41;14.45;;;9.93;;
33495;SDS011;19836;55.812;37.560;2024-01-27T03:13:07;13.43;;;10.10;;
33495;SDS011;19836;55.812;37.560;2024-01-27T03:15:39;13.13;;;9.20;;
33495;SDS011;19836;55.812;37.560;2024-01-27T03:18:08;12.95;;;9.63;;
33495;SDS011;19836;55.812;37.560;2024-01-27T03:32:15;18.95;;;11.63;;
33495;SDS011;19836;55.812;37.560;2024-01-27T03:34:43;15.15;;;10.65;;
33495;SDS011;19836;55.812;37.560;2024-01-27T03:37:12;16.02;;;11.50;;
33495;SDS011;19836;55.812;37.560;2024-01-27T03:39:40;15.52;;;11.32;;
33495;SDS011;19836;55.812;37.560;2024-01-27T03:42:08;18.58;;;12.75;;
33495;SDS011;19836;55.812;37.560;2024-01-27T03:44:34;17.65;;;13.32;;
33495;SDS011;19836;55.812;37.560;2024-01-27T03:47:00;19.80;;;12.30;;
33495;SDS011;19836;55.812;37.560;2024-01-27T03:49:26;17.10;;;12.13;;
33495;SDS011;19836;55.812;37.560;2024-01-27T03:51:51;17.60;;;12.13;;
33495;SDS011;19836;55.812;37.560;2024-01-27T03:54:17;18.33;;;12.35;;
33495;SDS011;19836;55.812;37.560;2024-01-27T03:56:43;17.10;;;11.75;;
33495;SDS011;19836;55.812;37.560;2024-01-27T03:59:09;17.42;;;12.05;;
33495;SDS011;19836;55.812;37.560;2024-01-27T04:01:36;16.80;;;12.73;;
33495;SDS011;19836;55.812;37.560;2024-01-27T04:04:02;17.83;;;13.48;;
33495;SDS011;19836;55.812;37.560;2024-01-27T04:06:29;19.02;;;13.35;;
33495;SDS011;19836;55.812;37.560;2024-01-27T04:08:54;17.25;;;12.75;;
33495;SDS011;19836;55.812;37.560;2024-01-27T04:11:21;19.13;;;12.45;;
33495;SDS011;19836;55.812;37.560;2024-01-27T04:13:48;17.13;;;11.98;;
33495;SDS011;19836;55.812;37.560;2024-01-27T04:16:16;17.88;;;13.00;;
33495;SDS011;19836;55.812;37.560;2024-01-27T04:18:42;25.35;;;14.82;;
33495;SDS011;19836;55.812;37.560;2024-01-27T04:21:08;16.60;;;11.25;;
33495;SDS011;19836;55.812;37.560;2024-01-27T04:23:34;16.17;;;11.52;;
33495;SDS011;19836;55.812;37.560;2024-01-27T04:26:00;16.23;;;10.32;;
33495;SDS011;19836;55.812;37.560;2024-01-27T04:31:56;18.63;;;11.82;;
33495;SDS011;19836;55.812;37.560;2024-01-27T04:34:22;13.45;;;9.07;;
33495;SDS011;19836;55.812;37.560;2024-01-27T04:36:48;21.02;;;11.35;;
33495;SDS011;19836;55.812;37.560;2024-01-27T04:39:14;13.52;;;9.43;;
33495;SDS011;19836;55.812;37.560;2024-01-27T04:44:59;15.00;;;9.85;;
33495;SDS011;19836;55.812;37.560;2024-01-27T04:47:25;11.88;;;8.20;;
33495;SDS011;19836;55.812;37.560;2024-01-27T04:49:51;17.48;;;10.73;;
33495;SDS011;19836;55.812;37.560;2024-01-27T04:52:17;16.75;;;8.95;;
33495;SDS011;19836;55.812;37.560;2024-01-27T04:54:43;21.23;;;12.10;;
33495;SDS011;19836;55.812;37.560;2024-01-27T05:04:45;13.52;;;8.77;;
33495;SDS011;19836;55.812;37.560;2024-01-27T05:07:11;16.60;;;8.75;;
33495;SDS011;19836;55.812;37.560;2024-01-27T05:09:37;9.23;;;6.50;;
33495;SDS011;19836;55.812;37.560;2024-01-27T05:12:04;12.93;;;7.65;;
33495;SDS011;19836;55.812;37.560;2024-01-27T05:14:30;8.80;;;5.40;;
33495;SDS011;19836;55.812;37.560;2024-01-27T05:16:57;16.27;;;8.00;;
33495;SDS011;19836;55.812;37.560;2024-01-27T05:19:23;8.88;;;6.40;;
33495;SDS011;19836;55.812;37.560;2024-01-27T05:21:49;11.10;;;7.57;;
33495;SDS011;19836;55.812;37.560;2024-01-27T05:24:15;11.50;;;7.15;;
33495;SDS011;19836;55.812;37.560;2024-01-27T05:26:41;14.35;;;8.05;;
33495;SDS011;19836;55.812;37.560;2024-01-27T05:29:07;12.38;;;6.93;;
33495;SDS011;19836;55.812;37.560;2024-01-27T05:31:34;14.52;;;8.90;;
33495;SDS011;19836;55.812;37.560;2024-01-27T05:34:00;14.38;;;7.80;;
33495;SDS011;19836;55.812;37.560;2024-01-27T05:36:27;11.43;;;6.78;;
33495;SDS011;19836;55.812;37.560;2024-01-27T05:38:53;18.50;;;8.57;;
33495;SDS011;19836;55.812;37.560;2024-01-27T05:41:19;17.95;;;8.43;;
33495;SDS011;19836;55.812;37.560;2024-01-27T05:43:45;16.70;;;8.10;;
33495;SDS011;19836;55.812;37.560;2024-01-27T05:46:11;12.95;;;7.10;;
33495;SDS011;19836;55.812;37.560;2024-01-27T05:48:37;17.08;;;8.57;;
33495;SDS011;19836;55.812;37.560;2024-01-27T05:51:03;12.90;;;7.15;;
33495;SDS011;19836;55.812;37.560;2024-01-27T05:53:34;20.80;;;9.52;;
33495;SDS011;19836;55.812;37.560;2024-01-27T05:56:01;11.98;;;6.82;;
33495;SDS011;19836;55.812;37.560;2024-01-27T05:58:27;18.73;;;9.55;;
33495;SDS011;19836;55.812;37.560;2024-01-27T06:00:53;19.08;;;9.20;;
33495;SDS011;19836;55.812;37.560;2024-01-27T06:03:19;12.13;;;6.97;;
33495;SDS011;19836;55.812;37.560;2024-01-27T06:05:46;16.15;;;8.45;;
33495;SDS011;19836;55.812;37.560;2024-01-27T06:08:11;9.85;;;6.65;;
33495;SDS011;19836;55.812;37.560;2024-01-27T06:10:40;11.35;;;7.05;;
33495;SDS011;19836;55.812;37.560;2024-01-27T06:13:06;15.25;;;7.95;;
33495;SDS011;19836;55.812;37.560;2024-01-27T06:15:33;8.75;;;6.18;;
33495;SDS011;19836;55.812;37.560;2024-01-27T06:18:02;13.55;;;7.10;;
33495;SDS011;19836;55.812;37.560;2024-01-27T06:20:28;11.82;;;6.72;;
33495;SDS011;19836;55.812;37.560;2024-01-27T06:36:10;13.48;;;7.78;;
33495;SDS011;19836;55.812;37.560;2024-01-27T06:38:39;12.13;;;7.95;;
33495;SDS011;19836;55.812;37.560;2024-01-27T06:41:06;9.32;;;6.13;;
33495;SDS011;19836;55.812;37.560;2024-01-27T06:43:32;13.32;;;8.48;;
33495;SDS011;19836;55.812;37.560;2024-01-27T06:45:58;8.60;;;6.20;;
33495;SDS011;19836;55.812;37.560;2024-01-27T06:48:29;29.95;;;11.60;;
33495;SDS011;19836;55.812;37.560;2024-01-27T06:50:55;8.35;;;6.25;;
33495;SDS011;19836;55.812;37.560;2024-01-27T06:53:21;10.63;;;6.90;;
33495;SDS011;19836;55.812;37.560;2024-01-27T06:55:47;11.43;;;7.68;;
33495;SDS011;19836;55.812;37.560;2024-01-27T06:58:13;12.73;;;7.88;;
33495;SDS011;19836;55.812;37.560;2024-01-27T07:00:39;15.35;;;8.57;;
33495;SDS011;19836;55.812;37.560;2024-01-27T07:03:19;14.82;;;7.78;;
33495;SDS011;19836;55.812;37.560;2024-01-27T07:05:46;14.35;;;7.88;;
33495;SDS011;19836;55.812;37.560;2024-01-27T07:08:12;14.07;;;7.78;;
33495;SDS011;19836;55.812;37.560;2024-01-27T07:10:50;11.45;;;7.75;;
33495;SDS011;19836;55.812;37.560;2024-01-27T07:13:16;12.68;;;7.68;;
33495;SDS011;19836;55.812;37.560;2024-01-27T07:15:41;12.85;;;8.02;;
33495;SDS011;19836;55.812;37.560;2024-01-27T07:18:07;11.27;;;7.32;;
33495;SDS011;19836;55.812;37.560;2024-01-27T07:20:34;11.38;;;7.63;;
33495;SDS011;19836;55.812;37.560;2024-01-27T07:23:02;14.40;;;8.52;;
33495;SDS011;19836;55.812;37.560;2024-01-27T07:25:48;15.57;;;9.32;;
33495;SDS011;19836;55.812;37.560;2024-01-27T07:28:14;14.13;;;8.52;;
33495;SDS011;19836;55.812;37.560;2024-01-27T07:30:41;15.15;;;8.23;;
33495;SDS011;19836;55.812;37.560;2024-01-27T07:33:07;18.52;;;10.00;;
33495;SDS011;19836;55.812;37.560;2024-01-27T07:35:33;16.52;;;8.82;;
33495;SDS011;19836;55.812;37.560;2024-01-27T07:38:04;13.90;;;9.48;;
33495;SDS011;19836;55.812;37.560;2024-01-27T07:40:31;13.95;;;8.70;;
33495;SDS011;19836;55.812;37.560;2024-01-27T07:42:57;13.27;;;8.55;;
33495;SDS011;19836;55.812;37.560;2024-01-27T07:45:23;14.98;;;9.15;;
33495;SDS011;19836;55.812;37.560;2024-01-27T07:47:49;12.95;;;8.45;;
33495;SDS011;19836;55.812;37.560;2024-01-27T07:50:15;13.48;;;8.38;;
33495;SDS011;19836;55.812;37.560;2024-01-27T07:52:41;13.43;;;8.65;;
33495;SDS011;19836;55.812;37.560;2024-01-27T07:55:08;16.80;;;9.00;;
33495;SDS011;19836;55.812;37.560;2024-01-27T07:57:34;15.10;;;8.32;;
33495;SDS011;19836;55.812;37.560;2024-01-27T08:00:00;13.95;;;8.77;;
33495;SDS011;19836;55.812;37.560;2024-01-27T08:02:29;11.98;;;8.55;;
33495;SDS011;19836;55.812;37.560;2024-01-27T08:04:55;14.70;;;8.18;;
33495;SDS011;19836;55.812;37.560;2024-01-27T08:07:21;15.00;;;10.40;;
33495;SDS011;19836;55.812;37.560;2024-01-27T08:09:47;13.07;;;8.40;;
33495;SDS011;19836;55.812;37.560;2024-01-27T08:12:13;12.07;;;8.38;;
33495;SDS011;19836;55.812;37.560;2024-01-27T08:14:39;11.95;;;8.68;;
33495;SDS011;19836;55.812;37.560;2024-01-27T08:17:06;14.30;;;9.05;;
33495;SDS011;19836;55.812;37.560;2024-01-27T08:19:32;14.80;;;8.75;;
33495;SDS011;19836;55.812;37.560;2024-01-27T08:21:58;12.27;;;8.15;;
33495;SDS011;19836;55.812;37.560;2024-01-27T08:24:25;14.75;;;7.93;;
33495;SDS011;19836;55.812;37.560;2024-01-27T08:26:51;9.88;;;7.15;;
33495;SDS011;19836;55.812;37.560;2024-01-27T08:29:17;12.65;;;8.07;;
33495;SDS011;19836;55.812;37.560;2024-01-27T08:31:43;13.13;;;8.07;;
33495;SDS011;19836;55.812;37.560;2024-01-27T08:34:09;13.48;;;8.68;;
33495;SDS011;19836;55.812;37.560;2024-01-27T08:36:44;13.20;;;8.55;;
33495;SDS011;19836;55.812;37.560;2024-01-27T08:39:52;17.20;;;8.15;;
33495;SDS011;19836;55.812;37.560;2024-01-27T08:42:18;15.20;;;8.77;;
33495;SDS011;19836;55.812;37.560;2024-01-27T08:44:45;13.55;;;8.18;;
33495;SDS011;19836;55.812;37.560;2024-01-27T08:47:44;14.63;;;8.80;;
33495;SDS011;19836;55.812;37.560;2024-01-27T08:50:10;16.35;;;8.48;;
33495;SDS011;19836;55.812;37.560;2024-01-27T08:52:36;12.82;;;8.05;;
33495;SDS011;19836;55.812;37.560;2024-01-27T08:55:02;16.08;;;8.93;;
33495;SDS011;19836;55.812;37.560;2024-01-27T08:58:13;13.43;;;8.65;;
33495;SDS011;19836;55.812;37.560;2024-01-27T09:00:39;14.02;;;8.25;;
33495;SDS011;19836;55.812;37.560;2024-01-27T09:03:05;14.90;;;8.57;;
33495;SDS011;19836;55.812;37.560;2024-01-27T09:05:33;17.88;;;8.18;;
33495;SDS011;19836;55.812;37.560;2024-01-27T09:07:59;12.07;;;8.30;;
33495;SDS011;19836;55.812;37.560;2024-01-27T09:10:25;16.17;;;8.98;;
33495;SDS011;19836;55.812;37.560;2024-01-27T09:16:23;13.60;;;7.95;;
33495;SDS011;19836;55.812;37.560;2024-01-27T09:18:49;12.10;;;8.05;;
33495;SDS011;19836;55.812;37.560;2024-01-27T09:21:15;13.63;;;8.20;;
33495;SDS011;19836;55.812;37.560;2024-01-27T09:23:46;14.35;;;7.15;;
33495;SDS011;19836;55.812;37.560;2024-01-27T09:26:14;11.32;;;7.28;;
33495;SDS011;19836;55.812;37.560;2024-01-27T09:28:40;13.02;;;7.05;;
33495;SDS011;19836;55.812;37.560;2024-01-27T09:31:12;11.80;;;8.02;;
33495;SDS011;19836;55.812;37.560;2024-01-27T09:38:14;12.45;;;8.38;;
33495;SDS011;19836;55.812;37.560;2024-01-27T09:40:43;14.40;;;9.45;;
33495;SDS011;19836;55.812;37.560;2024-01-27T09:43:20;12.50;;;8.07;;
33495;SDS011;19836;55.812;37.560;2024-01-27T09:45:47;11.35;;;6.97;;
33495;SDS011;19836;55.812;37.560;2024-01-27T09:48:17;16.75;;;9.40;;
33495;SDS011;19836;55.812;37.560;2024-01-27T09:50:44;14.20;;;9.00;;
33495;SDS011;19836;55.812;37.560;2024-01-27T10:00:40;14.30;;;8.35;;
33495;SDS011;19836;55.812;37.560;2024-01-27T10:04:22;12.30;;;9.02;;
33495;SDS011;19836;55.812;37.560;2024-01-27T10:06:50;13.55;;;9.57;;
33495;SDS011;19836;55.812;37.560;2024-01-27T10:09:23;13.25;;;8.82;;
33495;SDS011;19836;55.812;37.560;2024-01-27T10:11:52;16.00;;;10.00;;
33495;SDS011;19836;55.812;37.560;2024-01-27T10:18:29;14.15;;;10.00;;
33495;SDS011;19836;55.812;37.560;2024-01-27T10:21:21;17.15;;;11.10;;
33495;SDS011;19836;55.812;37.560;2024-01-27T10:24:31;17.27;;;10.65;;
33495;SDS011;19836;55.812;37.560;2024-01-27T10:35:01;15.57;;;10.48;;
33495;SDS011;19836;55.812;37.560;2024-01-27T10:37:40;16.30;;;10.82;;
33495;SDS011;19836;55.812;37.560;2024-01-27T10:40:56;16.55;;;10.55;;
33495;SDS011;19836;55.812;37.560;2024-01-27T10:43:50;16.27;;;10.77;;
33495;SDS011;19836;55.812;37.560;2024-01-27T10:46:22;16.38;;;11.35;;
33495;SDS011;19836;55.812;37.560;2024-01-27T10:48:51;15.55;;;11.15;;
33495;SDS011;19836;55.812;37.560;2024-01-27T10:51:22;16.52;;;10.95;;
33495;SDS011;19836;55.812;37.560;2024-01-27T10:53:58;17.33;;;11.90;;
33495;SDS011;19836;55.812;37.560;2024-01-27T10:56:33;15.27;;;11.02;;
33495;SDS011;19836;55.812;37.560;2024-01-27T10:59:28;17.88;;;11.32;;
33495;SDS011;19836;55.812;37.560;2024-01-27T11:01:58;16.08;;;11.40;;
33495;SDS011;19836;55.812;37.560;2024-01-27T11:04:25;16.33;;;11.73;;
33495;SDS011;19836;55.812;37.560;2024-01-27T11:06:54;17.55;;;12.68;;
33495;SDS011;19836;55.812;37.560;2024-01-27T11:09:23;15.73;;;11.60;;
33495;SDS011;19836;55.812;37.560;2024-01-27T11:11:53;18.23;;;11.85;;
33495;SDS011;19836;55.812;37.560;2024-01-27T11:14:20;20.27;;;12.43;;
33495;SDS011;19836;55.812;37.560;2024-01-27T11:16:47;15.27;;;11.52;;
33495;SDS011;19836;55.812;37.560;2024-01-27T11:19:16;18.00;;;11.63;;
33495;SDS011;19836;55.812;37.560;2024-01-27T11:21:46;15.90;;;10.85;;
33495;SDS011;19836;55.812;37.560;2024-01-27T11:24:14;14.63;;;11.65;;
33495;SDS011;19836;55.812;37.560;2024-01-27T11:26:41;16.55;;;11.18;;
33495;SDS011;19836;55.812;37.560;2024-01-27T11:29:12;15.38;;;10.70;;
33495;SDS011;19836;55.812;37.560;2024-01-27T11:31:45;16.23;;;10.93;;
33495;SDS011;19836;55.812;37.560;2024-01-27T11:34:25;14.07;;;9.80;;
33495;SDS011;19836;55.812;37.560;2024-01-27T11:36:57;13.73;;;10.13;;
33495;SDS011;19836;55.812;37.560;2024-01-27T11:39:26;13.15;;;9.15;;
33495;SDS011;19836;55.812;37.560;2024-01-27T11:42:26;14.75;;;9.57;;
33495;SDS011;19836;55.812;37.560;2024-01-27T11:45:03;12.18;;;9.45;;
33495;SDS011;19836;55.812;37.560;2024-01-27T11:47:37;14.75;;;10.18;;
33495;SDS011;19836;55.812;37.560;2024-01-27T11:50:04;14.32;;;10.38;;
33495;SDS011;19836;55.812;37.560;2024-01-27T11:52:30;16.05;;;10.90;;
33495;SDS011;19836;55.812;37.560;2024-01-27T11:54:56;14.82;;;9.70;;
33495;SDS011;19836;55.812;37.560;2024-01-27T11:57:35;12.95;;;8.90;;
33495;SDS011;19836;55.812;37.560;2024-01-27T12:00:06;14.43;;;9.00;;
33495;SDS011;19836;55.812;37.560;2024-01-27T12:02:36;14.18;;;9.90;;
33495;SDS011;19836;55.812;37.560;2024-01-27T12:05:52;13.38;;;9.55;;
33495;SDS011;19836;55.812;37.560;2024-01-27T12:08:26;11.50;;;8.25;;
33495;SDS011;19836;55.812;37.560;2024-01-27T12:10:53;14.45;;;9.55;;
33495;SDS011;19836;55.812;37.560;2024-01-27T12:17:01;12.25;;;9.07;;
33495;SDS011;19836;55.812;37.560;2024-01-27T12:19:27;11.50;;;8.20;;
33495;SDS011;19836;55.812;37.560;2024-01-27T12:21:53;13.00;;;8.65;;
33495;SDS011;19836;55.812;37.560;2024-01-27T12:24:19;14.05;;;10.00;;
33495;SDS011;19836;55.812;37.560;2024-01-27T12:26:45;15.52;;;10.63;;
33495;SDS011;19836;55.812;37.560;2024-01-27T12:29:12;12.82;;;9.45;;
33495;SDS011;19836;55.812;37.560;2024-01-27T12:31:37;14.15;;;8.48;;
33495;SDS011;19836;55.812;37.560;2024-01-27T12:34:04;14.52;;;9.23;;
33495;SDS011;19836;55.812;37.560;2024-01-27T12:36:30;14.25;;;9.57;;
33495;SDS011;19836;55.812;37.560;2024-01-27T12:38:57;13.55;;;8.73;;
33495;SDS011;19836;55.812;37.560;2024-01-27T12:41:24;11.38;;;8.27;;
33495;SDS011;19836;55.812;37.560;2024-01-27T12:43:52;13.32;;;9.05;;
33495;SDS011;19836;55.812;37.560;2024-01-27T12:46:21;12.23;;;8.80;;
33495;SDS011;19836;55.812;37.560;2024-01-27T12:48:47;10.65;;;8.73;;
33495;SDS011;19836;55.812;37.560;2024-01-27T12:51:15;11.27;;;8.52;;
33495;SDS011;19836;55.812;37.560;2024-01-27T12:53:41;10.98;;;8.40;;
33495;SDS011;19836;55.812;37.560;2024-01-27T12:56:10;12.13;;;9.05;;
33495;SDS011;19836;55.812;37.560;2024-01-27T12:58:37;12.20;;;8.73;;
33495;SDS011;19836;55.812;37.560;2024-01-27T13:01:04;12.52;;;9.48;;
33495;SDS011;19836;55.812;37.560;2024-01-27T13:03:32;13.68;;;8.85;;
33495;SDS011;19836;55.812;37.560;2024-01-27T13:05:58;12.77;;;8.60;;
33495;SDS011;19836;55.812;37.560;2024-01-27T13:08:24;13.70;;;9.45;;
33495;SDS011;19836;55.812;37.560;2024-01-27T13:10:51;13.32;;;9.20;;
33495;SDS011;19836;55.812;37.560;2024-01-27T13:13:17;13.57;;;8.68;;
33495;SDS011;19836;55.812;37.560;2024-01-27T13:15:43;12.93;;;9.20;;
33495;SDS011;19836;55.812;37.560;2024-01-27T13:18:09;12.55;;;9.25;;
33495;SDS011;19836;55.812;37.560;2024-01-27T13:20:36;12.73;;;9.50;;
33495;SDS011;19836;55.812;37.560;2024-01-27T13:23:04;13.68;;;9.38;;
33495;SDS011;19836;55.812;37.560;2024-01-27T13:25:30;13.05;;;9.60;;
33495;SDS011;19836;55.812;37.560;2024-01-27T13:27:56;12.27;;;8.35;;
33495;SDS011;19836;55.812;37.560;2024-01-27T13:30:27;14.25;;;9.63;;
33495;SDS011;19836;55.812;37.560;2024-01-27T13:36:33;12.77;;;8.95;;
33495;SDS011;19836;55.812;37.560;2024-01-27T13:38:59;13.07;;;9.27;;
33495;SDS011;19836;55.812;37.560;2024-01-27T13:41:26;14.30;;;9.35;;
33495;SDS011;19836;55.812;37.560;2024-01-27T13:43:52;12.23;;;8.63;;
33495;SDS011;19836;55.812;37.560;2024-01-27T13:46:18;16.10;;;10.10;;
33495;SDS011;19836;55.812;37.560;2024-01-27T13:51:16;13.93;;;8.82;;
33495;SDS011;19836;55.812;37.560;2024-01-27T13:53:43;13.63;;;9.63;;
33495;SDS011;19836;55.812;37.560;2024-01-27T13:56:10;13.35;;;9.30;;
33495;SDS011;19836;55.812;37.560;2024-01-27T13:59:11;12.32;;;8.88;;
33495;SDS011;19836;55.812;37.560;2024-01-27T14:01:39;14.65;;;9.30;;
33495;SDS011;19836;55.812;37.560;2024-01-27T14:04:06;13.32;;;9.63;;
33495;SDS011;19836;55.812;37.560;2024-01-27T15:56:39;14.02;;;9.57;;
33495;SDS011;19836;55.812;37.560;2024-01-27T15:59:39;15.15;;;11.05;;
33495;SDS011;19836;55.812;37.560;2024-01-27T16:02:09;16.27;;;10.40;;
33495;SDS011;19836;55.812;37.560;2024-01-27T16:05:32;16.63;;;10.23;;
33495;SDS011;19836;55.812;37.560;2024-01-27T16:07:58;15.88;;;11.27;;
33495;SDS011;19836;55.812;37.560;2024-01-27T16:10:30;16.45;;;10.73;;
33495;SDS011;19836;55.812;37.560;2024-01-27T16:12:56;13.98;;;9.80;;
33495;SDS011;19836;55.812;37.560;2024-01-27T16:16:10;17.23;;;11.65;;
33495;SDS011;19836;55.812;37.560;2024-01-27T16:25:48;18.10;;;11.25;;
33495;SDS011;19836;55.812;37.560;2024-01-27T16:28:14;17.65;;;12.25;;
33495;SDS011;19836;55.812;37.560;2024-01-27T16:31:16;17.40;;;11.73;;
33495;SDS011;19836;55.812;37.560;2024-01-27T16:33:47;20.83;;;13.85;;
33495;SDS011;19836;55.812;37.560;2024-01-27T16:36:52;19.35;;;13.52;;
33495;SDS011;19836;55.812;37.560;2024-01-27T16:39:45;20.05;;;13.30;;
33495;SDS011;19836;55.812;37.560;2024-01-27T16:46:14;20.77;;;13.17;;
33495;SDS011;19836;55.812;37.560;2024-01-27T17:08:24;18.85;;;11.98;;
33495;SDS011;19836;55.812;37.560;2024-01-27T17:10:53;17.92;;;11.55;;
33495;SDS011;19836;55.812;37.560;2024-01-27T17:21:59;17.80;;;11.85;;
33495;SDS011;19836;55.812;37.560;2024-01-27T18:58:58;16.13;;;9.95;;
33495;SDS011;19836;55.812;37.560;2024-01-27T19:54:36;15.27;;;10.02;;
33495;SDS011;19836;55.812;37.560;2024-01-27T20:09:50;15.43;;;10.63;;
33495;SDS011;19836;55.812;37.560;2024-01-27T20:12:18;15.68;;;10.05;;
33495;SDS011;19836;55.812;37.560;2024-01-27T20:14:48;14.38;;;10.52;;
33495;SDS011;19836;55.812;37.560;2024-01-27T20:17:17;16.80;;;10.88;;
33495;SDS011;19836;55.812;37.560;2024-01-27T20:19:44;16.45;;;11.10;;
33495;SDS011;19836;55.812;37.560;2024-01-27T20:22:23;17.02;;;10.77;;
33495;SDS011;19836;55.812;37.560;2024-01-27T20:24:49;15.77;;;10.65;;
33495;SDS011;19836;55.812;37.560;2024-01-27T20:27:17;24.90;;;13.45;;
33495;SDS011;19836;55.812;37.560;2024-01-27T20:29:54;18.25;;;10.70;;
33495;SDS011;19836;55.812;37.560;2024-01-27T20:51:03;20.83;;;12.60;;
33495;SDS011;19836;55.812;37.560;2024-01-27T20:54:01;18.02;;;10.40;;
33495;SDS011;19836;55.812;37.560;2024-01-27T20:56:46;19.05;;;10.38;;
33495;SDS011;19836;55.812;37.560;2024-01-27T20:59:23;17.55;;;10.48;;
33495;SDS011;19836;55.812;37.560;2024-01-27T21:01:50;16.55;;;10.23;;
33495;SDS011;19836;55.812;37.560;2024-01-27T21:04:22;15.38;;;10.75;;
33495;SDS011;19836;55.812;37.560;2024-01-27T21:06:51;15.18;;;9.85;;
33495;SDS011;19836;55.812;37.560;2024-01-27T21:09:19;15.63;;;10.18;;
33495;SDS011;19836;55.812;37.560;2024-01-27T21:11:45;16.77;;;10.73;;
33495;SDS011;19836;55.812;37.560;2024-01-27T21:14:12;18.88;;;12.55;;
33495;SDS011;19836;55.812;37.560;2024-01-27T21:16:41;24.02;;;13.82;;
33495;SDS011;19836;55.812;37.560;2024-01-27T21:19:11;17.92;;;10.95;;
33495;SDS011;19836;55.812;37.560;2024-01-27T21:22:32;15.45;;;10.13;;
33495;SDS011;19836;55.812;37.560;2024-01-27T21:25:01;16.23;;;10.40;;
33495;SDS011;19836;55.812;37.560;2024-01-27T21:32:00;13.80;;;9.48;;
33495;SDS011;19836;55.812;37.560;2024-01-27T21:35:00;13.60;;;8.98;;